sensor_id;sensor_type;location;lat;lon;timestamp;pressure;altitude;pressure_sealevel;temperature;humidity
51261;BME280;61705;46.228;24.812;2022-07-29T00:02:24;97623.59;;;23.84;61.96
51261;BME280;61705;46.228;24.812;2022-07-29T00:04:52;97622.34;;;23.79;62.06
51261;BME280;61705;46.228;24.812;2022-07-29T00:07:19;97612.50;;;23.70;62.21
51261;BME280;61705;46.228;24.812;2022-07-29T00:09:46;97612.31;;;23.71;62.21
51261;BME280;61705;46.228;24.812;2022-07-29T00:12:19;97614.53;;;23.76;62.11
51261;BME280;61705;46.228;24.812;2022-07-29T00:14:56;97615.66;;;23.83;61.66
51261;BME280;61705;46.228;24.812;2022-07-29T00:17:23;97612.78;;;23.84;61.76
51261;BME280;61705;46.228;24.812;2022-07-29T00:19:51;97616.31;;;23.85;61.87
51261;BME280;61705;46.228;24.812;2022-07-29T00:22:19;97612.25;;;23.81;61.64
51261;BME280;61705;46.228;24.812;2022-07-29T00:24:49;97611.47;;;23.71;61.71
51261;BME280;61705;46.228;24.812;2022-07-29T00:27:17;97618.88;;;23.69;62.22
51261;BME280;61705;46.228;24.812;2022-07-29T00:29:44;97609.16;;;23.76;61.83
51261;BME280;61705;46.228;24.812;2022-07-29T00:32:11;97615.88;;;23.72;61.68
51261;BME280;61705;46.228;24.812;2022-07-29T00:34:38;97606.66;;;23.64;61.76
51261;BME280;61705;46.228;24.812;2022-07-29T00:37:23;97606.81;;;23.63;61.78
51261;BME280;61705;46.228;24.812;2022-07-29T00:39:50;97609.66;;;23.61;61.88
51261;BME280;61705;46.228;24.812;2022-07-29T00:42:17;97608.50;;;23.64;61.48
51261;BME280;61705;46.228;24.812;2022-07-29T00:44:44;97609.66;;;23.61;61.51
51261;BME280;61705;46.228;24.812;2022-07-29T00:47:11;97617.38;;;23.56;61.55
51261;BME280;61705;46.228;24.812;2022-07-29T00:49:39;97614.50;;;23.58;61.52
51261;BME280;61705;46.228;24.812;2022-07-29T00:52:08;97623.13;;;23.44;62.06
51261;BME280;61705;46.228;24.812;2022-07-29T00:54:38;97619.00;;;23.49;61.60
51261;BME280;61705;46.228;24.812;2022-07-29T00:57:11;97606.88;;;23.53;61.76
51261;BME280;61705;46.228;24.812;2022-07-29T00:59:38;97607.97;;;23.60;61.83
51261;BME280;61705;46.228;24.812;2022-07-29T01:02:05;97600.78;;;23.51;61.63
51261;BME280;61705;46.228;24.812;2022-07-29T01:04:32;97612.53;;;23.60;61.40
51261;BME280;61705;46.228;24.812;2022-07-29T01:07:03;97607.22;;;23.68;61.49
51261;BME280;61705;46.228;24.812;2022-07-29T01:09:34;97603.13;;;23.64;61.39
51261;BME280;61705;46.228;24.812;2022-07-29T01:12:17;97595.88;;;23.64;61.77
51261;BME280;61705;46.228;24.812;2022-07-29T01:14:46;97594.94;;;23.56;61.83
51261;BME280;61705;46.228;24.812;2022-07-29T01:20:02;97601.56;;;23.61;61.67
51261;BME280;61705;46.228;24.812;2022-07-29T01:22:37;97605.66;;;23.65;61.51
51261;BME280;61705;46.228;24.812;2022-07-29T01:30:44;97604.97;;;23.63;61.77
51261;BME280;61705;46.228;24.812;2022-07-29T01:33:15;97604.13;;;23.63;62.01
51261;BME280;61705;46.228;24.812;2022-07-29T01:36:18;97600.72;;;23.61;61.87
51261;BME280;61705;46.228;24.812;2022-07-29T01:41:38;97598.44;;;23.66;61.84
51261;BME280;61705;46.228;24.812;2022-07-29T01:44:13;97598.28;;;23.68;61.84
51261;BME280;61705;46.228;24.812;2022-07-29T01:46:50;97592.31;;;23.64;61.73
51261;BME280;61705;46.228;24.812;2022-07-29T01:49:27;97596.28;;;23.70;61.61
51261;BME280;61705;46.228;24.812;2022-07-29T01:51:58;97594.84;;;23.65;61.87
51261;BME280;61705;46.228;24.812;2022-07-29T01:54:34;97598.44;;;23.66;61.88
51261;BME280;61705;46.228;24.812;2022-07-29T01:57:04;97584.06;;;23.65;61.63
51261;BME280;61705;46.228;24.812;2022-07-29T01:59:34;97585.06;;;23.64;61.86
51261;BME280;61705;46.228;24.812;2022-07-29T02:02:02;97584.69;;;23.59;61.86
51261;BME280;61705;46.228;24.812;2022-07-29T02:04:31;97584.94;;;23.66;61.68
51261;BME280;61705;46.228;24.812;2022-07-29T02:07:04;97588.47;;;23.67;61.45
51261;BME280;61705;46.228;24.812;2022-07-29T02:09:34;97584.84;;;23.58;61.80
51261;BME280;61705;46.228;24.812;2022-07-29T02:12:03;97582.59;;;23.35;62.96
51261;BME280;61705;46.228;24.812;2022-07-29T02:14:36;97577.34;;;23.34;62.86
51261;BME280;61705;46.228;24.812;2022-07-29T02:17:03;97586.03;;;23.28;63.19
51261;BME280;61705;46.228;24.812;2022-07-29T02:19:32;97580.44;;;23.39;62.77
51261;BME280;61705;46.228;24.812;2022-07-29T02:22:01;97587.91;;;23.45;62.61
51261;BME280;61705;46.228;24.812;2022-07-29T02:24:29;97582.28;;;23.38;62.70
51261;BME280;61705;46.228;24.812;2022-07-29T02:26:58;97580.81;;;23.26;63.15
51261;BME280;61705;46.228;24.812;2022-07-29T02:29:28;97572.19;;;23.23;63.47
51261;BME280;61705;46.228;24.812;2022-07-29T02:31:58;97574.88;;;23.23;63.52
51261;BME280;61705;46.228;24.812;2022-07-29T02:34:27;97578.94;;;23.09;63.97
51261;BME280;61705;46.228;24.812;2022-07-29T02:36:55;97573.41;;;23.01;64.44
51261;BME280;61705;46.228;24.812;2022-07-29T02:39:23;97575.94;;;23.12;63.89
51261;BME280;61705;46.228;24.812;2022-07-29T02:41:55;97581.47;;;23.10;63.61
51261;BME280;61705;46.228;24.812;2022-07-29T02:44:24;97578.94;;;23.09;63.95
51261;BME280;61705;46.228;24.812;2022-07-29T02:47:27;97576.38;;;23.07;64.06
51261;BME280;61705;46.228;24.812;2022-07-29T02:52:56;97581.06;;;23.05;64.07
51261;BME280;61705;46.228;24.812;2022-07-29T02:55:40;97575.91;;;22.94;64.29
51261;BME280;61705;46.228;24.812;2022-07-29T02:58:32;97581.38;;;23.02;63.94
51261;BME280;61705;46.228;24.812;2022-07-29T03:01:03;97580.81;;;22.99;63.84
51261;BME280;61705;46.228;24.812;2022-07-29T03:03:35;97581.69;;;22.89;63.87
51261;BME280;61705;46.228;24.812;2022-07-29T03:06:05;97590.63;;;22.90;64.22
51261;BME280;61705;46.228;24.812;2022-07-29T03:08:34;97588.22;;;22.87;63.96
51261;BME280;61705;46.228;24.812;2022-07-29T03:11:03;97582.63;;;22.70;64.54
51261;BME280;61705;46.228;24.812;2022-07-29T03:13:31;97580.06;;;22.69;64.90
51261;BME280;61705;46.228;24.812;2022-07-29T03:16:04;97582.34;;;22.74;64.36
51261;BME280;61705;46.228;24.812;2022-07-29T03:18:32;97588.41;;;22.76;64.63
51261;BME280;61705;46.228;24.812;2022-07-29T03:20:59;97589.41;;;22.75;64.51
51261;BME280;61705;46.228;24.812;2022-07-29T03:23:30;97581.38;;;22.65;64.64
51261;BME280;61705;46.228;24.812;2022-07-29T03:26:05;97587.31;;;22.68;64.74
51261;BME280;61705;46.228;24.812;2022-07-29T03:28:32;97594.03;;;22.55;65.08
51261;BME280;61705;46.228;24.812;2022-07-29T03:30:59;97589.94;;;22.51;65.45
51261;BME280;61705;46.228;24.812;2022-07-29T03:33:27;97590.75;;;22.61;65.30
51261;BME280;61705;46.228;24.812;2022-07-29T03:35:55;97595.41;;;22.59;65.53
51261;BME280;61705;46.228;24.812;2022-07-29T03:38:25;97594.00;;;22.64;65.38
51261;BME280;61705;46.228;24.812;2022-07-29T03:41:00;97599.78;;;22.69;65.19
51261;BME280;61705;46.228;24.812;2022-07-29T03:43:32;97606.34;;;22.67;65.34
51261;BME280;61705;46.228;24.812;2022-07-29T03:46:01;97608.88;;;22.68;65.50
51261;BME280;61705;46.228;24.812;2022-07-29T03:48:36;97603.38;;;22.60;65.45
51261;BME280;61705;46.228;24.812;2022-07-29T03:51:05;97601.66;;;22.59;65.89
51261;BME280;61705;46.228;24.812;2022-07-29T03:53:32;97599.31;;;22.46;66.14
51261;BME280;61705;46.228;24.812;2022-07-29T03:56:01;97602.97;;;22.45;66.16
51261;BME280;61705;46.228;24.812;2022-07-29T03:58:30;97596.72;;;22.55;65.83
51261;BME280;61705;46.228;24.812;2022-07-29T04:00:58;97598.84;;;22.61;66.23
51261;BME280;61705;46.228;24.812;2022-07-29T04:03:25;97598.41;;;22.56;65.95
51261;BME280;61705;46.228;24.812;2022-07-29T04:06:03;97595.97;;;22.62;66.10
51261;BME280;61705;46.228;24.812;2022-07-29T04:08:33;97600.38;;;22.63;65.73
51261;BME280;61705;46.228;24.812;2022-07-29T04:11:01;97602.03;;;22.74;65.63
51261;BME280;61705;46.228;24.812;2022-07-29T04:13:28;97596.38;;;22.77;65.56
51261;BME280;61705;46.228;24.812;2022-07-29T04:15:55;97597.94;;;22.70;66.10
51261;BME280;61705;46.228;24.812;2022-07-29T04:18:22;97591.41;;;22.73;65.85
51261;BME280;61705;46.228;24.812;2022-07-29T04:20:50;97587.72;;;22.74;65.97
51261;BME280;61705;46.228;24.812;2022-07-29T04:23:17;97585.34;;;22.70;66.12
51261;BME280;61705;46.228;24.812;2022-07-29T04:25:44;97598.34;;;22.75;65.79
51261;BME280;61705;46.228;24.812;2022-07-29T04:28:14;97595.22;;;22.70;66.10
51261;BME280;61705;46.228;24.812;2022-07-29T04:30:42;97590.59;;;22.62;66.53
51261;BME280;61705;46.228;24.812;2022-07-29T04:33:09;97599.22;;;22.66;66.09
51261;BME280;61705;46.228;24.812;2022-07-29T04:35:37;97595.13;;;22.62;66.05
51261;BME280;61705;46.228;24.812;2022-07-29T04:38:15;97600.97;;;22.57;66.07
51261;BME280;61705;46.228;24.812;2022-07-29T04:40:42;97611.97;;;22.74;65.65
51261;BME280;61705;46.228;24.812;2022-07-29T04:43:09;97616.38;;;22.75;65.79
51261;BME280;61705;46.228;24.812;2022-07-29T04:45:39;97613.13;;;22.71;65.94
51261;BME280;61705;46.228;24.812;2022-07-29T04:48:06;97615.53;;;22.74;65.43
51261;BME280;61705;46.228;24.812;2022-07-29T04:50:33;97601.75;;;22.77;65.45
51261;BME280;61705;46.228;24.812;2022-07-29T04:53:00;97611.78;;;22.85;65.30
51261;BME280;61705;46.228;24.812;2022-07-29T04:55:26;97605.22;;;22.97;65.04
51261;BME280;61705;46.228;24.812;2022-07-29T04:57:53;97606.19;;;23.06;64.53
51261;BME280;61705;46.228;24.812;2022-07-29T05:00:20;97611.22;;;23.18;64.10
51261;BME280;61705;46.228;24.812;2022-07-29T05:02:58;97605.13;;;23.16;64.48
51261;BME280;61705;46.228;24.812;2022-07-29T05:05:25;97603.97;;;23.19;63.97
51261;BME280;61705;46.228;24.812;2022-07-29T05:07:52;97607.69;;;23.18;64.18
51261;BME280;61705;46.228;24.812;2022-07-29T05:10:19;97605.78;;;23.28;63.70
51261;BME280;61705;46.228;24.812;2022-07-29T05:12:45;97611.25;;;23.36;63.42
51261;BME280;61705;46.228;24.812;2022-07-29T05:15:12;97616.19;;;23.41;63.67
51261;BME280;61705;46.228;24.812;2022-07-29T05:17:39;97619.59;;;23.43;63.41
51261;BME280;61705;46.228;24.812;2022-07-29T05:20:07;97609.72;;;23.52;63.53
51261;BME280;61705;46.228;24.812;2022-07-29T05:22:34;97613.50;;;23.59;63.14
51261;BME280;61705;46.228;24.812;2022-07-29T05:25:01;97614.00;;;23.72;62.75
51261;BME280;61705;46.228;24.812;2022-07-29T05:27:35;97615.47;;;23.84;62.61
51261;BME280;61705;46.228;24.812;2022-07-29T05:30:03;97608.47;;;23.92;62.37
51261;BME280;61705;46.228;24.812;2022-07-29T05:32:31;97611.84;;;24.11;61.42
51261;BME280;61705;46.228;24.812;2022-07-29T05:34:58;97617.72;;;24.07;61.34
51261;BME280;61705;46.228;24.812;2022-07-29T05:37:25;97613.44;;;24.22;61.35
51261;BME280;61705;46.228;24.812;2022-07-29T05:39:54;97608.47;;;24.35;60.76
51261;BME280;61705;46.228;24.812;2022-07-29T05:42:23;97609.84;;;24.40;60.73
51261;BME280;61705;46.228;24.812;2022-07-29T05:44:49;97609.84;;;24.40;60.74
51261;BME280;61705;46.228;24.812;2022-07-29T05:47:18;97604.53;;;24.48;60.27
51261;BME280;61705;46.228;24.812;2022-07-29T05:49:46;97605.25;;;24.58;60.15
51261;BME280;61705;46.228;24.812;2022-07-29T05:52:13;97603.25;;;24.60;59.85
51261;BME280;61705;46.228;24.812;2022-07-29T05:54:40;97603.84;;;24.72;59.90
51261;BME280;61705;46.228;24.812;2022-07-29T05:57:17;97599.28;;;24.72;59.93
51261;BME280;61705;46.228;24.812;2022-07-29T05:59:44;97606.22;;;24.75;59.87
51261;BME280;61705;46.228;24.812;2022-07-29T06:02:11;97595.28;;;24.85;59.76
51261;BME280;61705;46.228;24.812;2022-07-29T06:04:41;97590.03;;;24.83;59.41
51261;BME280;61705;46.228;24.812;2022-07-29T06:07:07;97588.06;;;24.93;59.03
51261;BME280;61705;46.228;24.812;2022-07-29T06:09:35;97588.59;;;25.05;59.15
51261;BME280;61705;46.228;24.812;2022-07-29T06:12:02;97592.66;;;25.01;59.06
51261;BME280;61705;46.228;24.812;2022-07-29T06:14:29;97588.59;;;24.97;59.28
51261;BME280;61705;46.228;24.812;2022-07-29T06:16:56;97577.69;;;25.15;59.01
51261;BME280;61705;46.228;24.812;2022-07-29T06:19:23;97585.69;;;25.24;58.23
51261;BME280;61705;46.228;24.812;2022-07-29T06:21:49;97589.22;;;25.25;58.51
51261;BME280;61705;46.228;24.812;2022-07-29T06:24:16;97583.50;;;25.36;58.13
51261;BME280;61705;46.228;24.812;2022-07-29T06:26:44;97578.78;;;25.46;57.60
51261;BME280;61705;46.228;24.812;2022-07-29T06:29:11;97580.84;;;25.44;57.64
51261;BME280;61705;46.228;24.812;2022-07-29T06:31:38;97575.56;;;25.35;57.34
51261;BME280;61705;46.228;24.812;2022-07-29T06:34:06;97566.59;;;25.42;57.21
51261;BME280;61705;46.228;24.812;2022-07-29T06:36:37;97573.06;;;25.49;56.90
51261;BME280;61705;46.228;24.812;2022-07-29T06:39:07;97574.25;;;25.63;56.91
51261;BME280;61705;46.228;24.812;2022-07-29T06:41:34;97577.47;;;25.59;56.69
51261;BME280;61705;46.228;24.812;2022-07-29T06:44:02;97567.81;;;25.56;56.34
51261;BME280;61705;46.228;24.812;2022-07-29T06:46:29;97573.94;;;25.74;56.14
51261;BME280;61705;46.228;24.812;2022-07-29T06:48:55;97569.88;;;25.79;56.08
51261;BME280;61705;46.228;24.812;2022-07-29T06:51:23;97574.16;;;25.89;55.95
51261;BME280;61705;46.228;24.812;2022-07-29T06:53:51;97581.59;;;25.95;55.85
51261;BME280;61705;46.228;24.812;2022-07-29T06:56:31;97581.75;;;25.86;56.03
51261;BME280;61705;46.228;24.812;2022-07-29T06:59:05;97570.75;;;25.87;55.64
51261;BME280;61705;46.228;24.812;2022-07-29T07:01:33;97561.44;;;25.98;55.38
51261;BME280;61705;46.228;24.812;2022-07-29T07:04:00;97565.66;;;26.25;54.59
51261;BME280;61705;46.228;24.812;2022-07-29T07:06:27;97574.63;;;26.26;54.18
51261;BME280;61705;46.228;24.812;2022-07-29T07:08:54;97570.59;;;26.30;54.65
51261;BME280;61705;46.228;24.812;2022-07-29T07:11:20;97571.91;;;26.42;54.53
51261;BME280;61705;46.228;24.812;2022-07-29T07:13:47;97572.44;;;26.54;54.13
51261;BME280;61705;46.228;24.812;2022-07-29T07:16:14;97570.22;;;26.49;54.17
51261;BME280;61705;46.228;24.812;2022-07-29T07:18:41;97576.13;;;26.53;54.51
51261;BME280;61705;46.228;24.812;2022-07-29T07:21:08;97573.94;;;26.64;54.28
51261;BME280;61705;46.228;24.812;2022-07-29T07:23:35;97576.09;;;26.69;54.15
51261;BME280;61705;46.228;24.812;2022-07-29T07:26:02;97583.84;;;26.80;53.92
51261;BME280;61705;46.228;24.812;2022-07-29T07:28:29;97572.84;;;26.82;52.80
51261;BME280;61705;46.228;24.812;2022-07-29T07:30:57;97566.53;;;26.89;52.26
51261;BME280;61705;46.228;24.812;2022-07-29T07:33:24;97575.31;;;27.00;51.86
51261;BME280;61705;46.228;24.812;2022-07-29T07:35:53;97568.75;;;26.94;51.52
51261;BME280;61705;46.228;24.812;2022-07-29T07:38:20;97572.31;;;26.94;51.96
51261;BME280;61705;46.228;24.812;2022-07-29T07:40:46;97574.78;;;27.04;51.29
51261;BME280;61705;46.228;24.812;2022-07-29T07:43:13;97575.31;;;27.08;51.64
51261;BME280;61705;46.228;24.812;2022-07-29T07:45:40;97577.16;;;27.07;51.33
51261;BME280;61705;46.228;24.812;2022-07-29T07:48:07;97580.16;;;27.21;51.27
51261;BME280;61705;46.228;24.812;2022-07-29T07:50:37;97572.00;;;27.29;51.17
51261;BME280;61705;46.228;24.812;2022-07-29T07:53:04;97570.66;;;27.25;51.59
51261;BME280;61705;46.228;24.812;2022-07-29T07:55:30;97573.69;;;27.30;51.67
51261;BME280;61705;46.228;24.812;2022-07-29T07:58:18;97569.56;;;27.42;51.17
51261;BME280;61705;46.228;24.812;2022-07-29T08:00:45;97572.00;;;27.60;50.88
51261;BME280;61705;46.228;24.812;2022-07-29T08:03:11;97571.78;;;27.61;50.86
51261;BME280;61705;46.228;24.812;2022-07-29T08:05:42;97572.00;;;27.60;50.23
51261;BME280;61705;46.228;24.812;2022-07-29T08:08:09;97561.66;;;27.55;50.67
51261;BME280;61705;46.228;24.812;2022-07-29T08:10:36;97571.31;;;27.58;50.77
51261;BME280;61705;46.228;24.812;2022-07-29T08:13:20;97574.44;;;27.78;50.86
51261;BME280;61705;46.228;24.812;2022-07-29T08:15:47;97575.22;;;27.86;50.50
51261;BME280;61705;46.228;24.812;2022-07-29T08:18:25;97573.34;;;27.87;50.21
51261;BME280;61705;46.228;24.812;2022-07-29T08:20:52;97577.75;;;27.88;49.86
51261;BME280;61705;46.228;24.812;2022-07-29T08:23:19;97579.63;;;28.10;48.99
51261;BME280;61705;46.228;24.812;2022-07-29T08:25:46;97575.31;;;28.16;49.33
51261;BME280;61705;46.228;24.812;2022-07-29T08:28:16;97574.34;;;28.09;48.18
51261;BME280;61705;46.228;24.812;2022-07-29T08:30:43;97578.81;;;28.25;48.88
51261;BME280;61705;46.228;24.812;2022-07-29T08:33:10;97579.16;;;28.45;47.95
51261;BME280;61705;46.228;24.812;2022-07-29T08:35:39;97577.31;;;28.37;47.88
51261;BME280;61705;46.228;24.812;2022-07-29T08:38:07;97579.44;;;28.50;47.64
51261;BME280;61705;46.228;24.812;2022-07-29T08:40:34;97566.81;;;28.34;47.19
51261;BME280;61705;46.228;24.812;2022-07-29T08:43:05;97571.25;;;28.35;47.14
51261;BME280;61705;46.228;24.812;2022-07-29T08:45:44;97578.75;;;28.48;46.93
51261;BME280;61705;46.228;24.812;2022-07-29T08:48:23;97576.16;;;28.54;46.96
51261;BME280;61705;46.228;24.812;2022-07-29T08:50:57;97574.22;;;28.63;46.99
51261;BME280;61705;46.228;24.812;2022-07-29T08:53:26;97573.25;;;28.71;47.00
51261;BME280;61705;46.228;24.812;2022-07-29T08:55:55;97572.88;;;28.89;46.78
51261;BME280;61705;46.228;24.812;2022-07-29T08:58:23;97572.44;;;29.15;45.80
51261;BME280;61705;46.228;24.812;2022-07-29T09:00:54;97563.22;;;29.31;45.32
51261;BME280;61705;46.228;24.812;2022-07-29T09:03:29;97569.13;;;29.34;44.82
51261;BME280;61705;46.228;24.812;2022-07-29T09:05:57;97556.44;;;29.41;45.36
51261;BME280;61705;46.228;24.812;2022-07-29T09:08:25;97560.03;;;29.63;44.76
51261;BME280;61705;46.228;24.812;2022-07-29T09:10:53;97555.28;;;29.50;44.40
51261;BME280;61705;46.228;24.812;2022-07-29T09:13:22;97558.63;;;29.31;44.24
51261;BME280;61705;46.228;24.812;2022-07-29T09:15:49;97556.75;;;29.53;44.38
51261;BME280;61705;46.228;24.812;2022-07-29T09:21:03;97555.94;;;30.17;43.79
51261;BME280;61705;46.228;24.812;2022-07-29T09:24:06;97551.75;;;30.42;43.14
51261;BME280;61705;46.228;24.812;2022-07-29T09:26:35;97554.84;;;30.61;42.65
51261;BME280;61705;46.228;24.812;2022-07-29T09:29:18;97551.25;;;30.88;42.15
51261;BME280;61705;46.228;24.812;2022-07-29T09:31:48;97546.50;;;31.10;41.45
51261;BME280;61705;46.228;24.812;2022-07-29T09:34:21;97552.22;;;31.15;41.86
51261;BME280;61705;46.228;24.812;2022-07-29T09:36:49;97545.53;;;31.18;41.37
51261;BME280;61705;46.228;24.812;2022-07-29T09:39:27;97537.78;;;31.28;41.05
51261;BME280;61705;46.228;24.812;2022-07-29T09:41:57;97535.09;;;31.35;40.67
51261;BME280;61705;46.228;24.812;2022-07-29T09:44:25;97535.13;;;31.48;40.58
51261;BME280;61705;46.228;24.812;2022-07-29T09:47:01;97530.13;;;31.72;40.86
51261;BME280;61705;46.228;24.812;2022-07-29T09:49:36;97520.69;;;31.81;40.01
51261;BME280;61705;46.228;24.812;2022-07-29T09:52:16;97520.09;;;31.99;39.34
51261;BME280;61705;46.228;24.812;2022-07-29T09:54:42;97514.63;;;32.12;38.79
51261;BME280;61705;46.228;24.812;2022-07-29T09:57:25;97511.50;;;32.02;39.25
51261;BME280;61705;46.228;24.812;2022-07-29T10:00:07;97516.31;;;32.00;39.05
51261;BME280;61705;46.228;24.812;2022-07-29T10:02:36;97512.53;;;32.01;38.37
51261;BME280;61705;46.228;24.812;2022-07-29T10:05:09;97507.09;;;32.07;38.62
51261;BME280;61705;46.228;24.812;2022-07-29T10:07:51;97505.38;;;32.26;37.73
51261;BME280;61705;46.228;24.812;2022-07-29T10:10:23;97505.38;;;32.33;37.22
51261;BME280;61705;46.228;24.812;2022-07-29T10:12:54;97498.22;;;32.19;36.72
51261;BME280;61705;46.228;24.812;2022-07-29T10:15:25;97493.81;;;32.11;37.53
51261;BME280;61705;46.228;24.812;2022-07-29T10:17:53;97496.94;;;32.41;37.37
51261;BME280;61705;46.228;24.812;2022-07-29T10:20:22;97496.31;;;32.59;36.74
51261;BME280;61705;46.228;24.812;2022-07-29T10:22:50;97487.66;;;32.69;36.05
51261;BME280;61705;46.228;24.812;2022-07-29T10:25:20;97497.16;;;32.46;35.88
51261;BME280;61705;46.228;24.812;2022-07-29T10:27:49;97493.38;;;32.27;36.93
51261;BME280;61705;46.228;24.812;2022-07-29T10:30:21;97489.38;;;32.23;36.79
51261;BME280;61705;46.228;24.812;2022-07-29T10:38:47;97482.44;;;31.74;38.40
51261;BME280;61705;46.228;24.812;2022-07-29T10:44:01;97484.31;;;31.67;38.48
51261;BME280;61705;46.228;24.812;2022-07-29T10:46:34;97483.91;;;31.77;38.74
51261;BME280;61705;46.228;24.812;2022-07-29T10:49:08;97504.28;;;31.74;38.33
51261;BME280;61705;46.228;24.812;2022-07-29T10:59:45;97520.81;;;29.79;52.92
51261;BME280;61705;46.228;24.812;2022-07-29T11:05:15;97516.94;;;29.31;58.07
51261;BME280;61705;46.228;24.812;2022-07-29T11:08:23;97511.19;;;29.40;60.57
51261;BME280;61705;46.228;24.812;2022-07-29T11:10:53;97516.50;;;29.48;62.28
51261;BME280;61705;46.228;24.812;2022-07-29T11:13:51;97506.06;;;29.52;62.12
51261;BME280;61705;46.228;24.812;2022-07-29T11:16:21;97501.84;;;29.49;61.05
51261;BME280;61705;46.228;24.812;2022-07-29T11:21:41;97498.34;;;29.56;60.02
51261;BME280;61705;46.228;24.812;2022-07-29T11:24:30;97500.41;;;29.53;59.85
51261;BME280;61705;46.228;24.812;2022-07-29T11:27:19;97504.28;;;29.59;60.93
51261;BME280;61705;46.228;24.812;2022-07-29T11:29:58;97491.09;;;29.63;59.05
51261;BME280;61705;46.228;24.812;2022-07-29T11:32:41;97486.59;;;29.55;59.22
51261;BME280;61705;46.228;24.812;2022-07-29T11:37:44;97479.38;;;29.62;58.86
51261;BME280;61705;46.228;24.812;2022-07-29T11:40:21;97483.16;;;29.61;60.47
51261;BME280;61705;46.228;24.812;2022-07-29T11:42:51;97479.88;;;29.72;58.59
51261;BME280;61705;46.228;24.812;2022-07-29T11:45:25;97474.44;;;29.72;58.09
51261;BME280;61705;46.228;24.812;2022-07-29T11:48:18;97475.88;;;29.68;57.28
51261;BME280;61705;46.228;24.812;2022-07-29T11:50:58;97473.63;;;29.57;55.93
51261;BME280;61705;46.228;24.812;2022-07-29T11:53:25;97477.78;;;29.53;55.82
51261;BME280;61705;46.228;24.812;2022-07-29T11:55:59;97484.47;;;29.50;57.16
51261;BME280;61705;46.228;24.812;2022-07-29T11:58:28;97496.47;;;28.69;59.74
51261;BME280;61705;46.228;24.812;2022-07-29T12:00:57;97491.00;;;28.24;61.46
51261;BME280;61705;46.228;24.812;2022-07-29T12:03:30;97492.38;;;28.05;62.00
51261;BME280;61705;46.228;24.812;2022-07-29T12:06:01;97487.91;;;27.90;63.01
51261;BME280;61705;46.228;24.812;2022-07-29T12:08:40;97497.41;;;27.71;64.35
51261;BME280;61705;46.228;24.812;2022-07-29T12:11:15;97492.78;;;27.56;65.37
51261;BME280;61705;46.228;24.812;2022-07-29T12:13:46;97485.78;;;27.39;66.67
51261;BME280;61705;46.228;24.812;2022-07-29T12:16:14;97476.47;;;27.33;67.69
51261;BME280;61705;46.228;24.812;2022-07-29T12:18:59;97469.66;;;27.37;68.06
51261;BME280;61705;46.228;24.812;2022-07-29T12:21:28;97472.69;;;27.43;66.76
51261;BME280;61705;46.228;24.812;2022-07-29T12:23:56;97465.66;;;27.48;67.20
51261;BME280;61705;46.228;24.812;2022-07-29T12:26:32;97467.19;;;27.51;67.62
51261;BME280;61705;46.228;24.812;2022-07-29T12:29:01;97456.31;;;27.51;67.38
51261;BME280;61705;46.228;24.812;2022-07-29T12:31:36;97440.59;;;27.46;67.30
51261;BME280;61705;46.228;24.812;2022-07-29T12:34:11;97443.66;;;27.43;67.73
51261;BME280;61705;46.228;24.812;2022-07-29T12:36:38;97449.09;;;27.43;68.82
51261;BME280;61705;46.228;24.812;2022-07-29T12:39:05;97442.06;;;27.49;68.17
51261;BME280;61705;46.228;24.812;2022-07-29T12:41:32;97446.53;;;27.41;68.32
51261;BME280;61705;46.228;24.812;2022-07-29T12:43:59;97441.44;;;27.47;67.06
51261;BME280;61705;46.228;24.812;2022-07-29T12:46:26;97443.91;;;27.56;67.05
51261;BME280;61705;46.228;24.812;2022-07-29T12:48:54;97445.94;;;27.54;66.87
51261;BME280;61705;46.228;24.812;2022-07-29T12:51:35;97447.13;;;27.52;67.05
51261;BME280;61705;46.228;24.812;2022-07-29T12:54:15;97447.91;;;27.46;67.08
51261;BME280;61705;46.228;24.812;2022-07-29T12:56:43;97455.59;;;27.34;66.98
51261;BME280;61705;46.228;24.812;2022-07-29T12:59:16;97451.81;;;27.20;66.98
51261;BME280;61705;46.228;24.812;2022-07-29T13:01:45;97441.84;;;27.04;66.52
51261;BME280;61705;46.228;24.812;2022-07-29T13:04:32;97442.28;;;26.93;66.67
51261;BME280;61705;46.228;24.812;2022-07-29T13:07:02;97445.22;;;26.83;67.36
51261;BME280;61705;46.228;24.812;2022-07-29T13:09:41;97434.00;;;26.63;67.41
51261;BME280;61705;46.228;24.812;2022-07-29T13:12:11;97431.66;;;26.44;67.96
51261;BME280;61705;46.228;24.812;2022-07-29T13:14:42;97437.63;;;26.31;68.35
51261;BME280;61705;46.228;24.812;2022-07-29T13:17:20;97432.59;;;26.12;69.13
51261;BME280;61705;46.228;24.812;2022-07-29T13:20:05;97431.59;;;26.05;69.39
51261;BME280;61705;46.228;24.812;2022-07-29T13:22:52;97435.22;;;25.81;69.36
51261;BME280;61705;46.228;24.812;2022-07-29T13:25:29;97429.78;;;25.40;69.11
51261;BME280;61705;46.228;24.812;2022-07-29T13:27:58;97434.88;;;25.26;68.90
51261;BME280;61705;46.228;24.812;2022-07-29T13:30:26;97442.47;;;25.23;69.01
51261;BME280;61705;46.228;24.812;2022-07-29T13:32:52;97428.78;;;25.16;69.86
51261;BME280;61705;46.228;24.812;2022-07-29T13:35:19;97431.91;;;24.87;71.27
51261;BME280;61705;46.228;24.812;2022-07-29T13:37:47;97432.72;;;24.71;71.78
51261;BME280;61705;46.228;24.812;2022-07-29T13:40:17;97428.63;;;24.59;70.76
51261;BME280;61705;46.228;24.812;2022-07-29T13:42:44;97433.72;;;24.62;70.11
51261;BME280;61705;46.228;24.812;2022-07-29T13:45:13;97452.78;;;24.61;70.13
51261;BME280;61705;46.228;24.812;2022-07-29T13:47:41;97445.84;;;24.58;71.13
51261;BME280;61705;46.228;24.812;2022-07-29T13:50:14;97458.88;;;24.63;70.85
51261;BME280;61705;46.228;24.812;2022-07-29T13:52:41;97474.75;;;24.66;71.14